sensor_id;sensor_type;location;lat;lon;timestamp;P1;durP1;ratioP1;P2;durP2;ratioP2
45762;SDS011;37512;52.408;13.356;2023-10-13T00:01:42;10.13;;;4.38;;
45762;SDS011;37512;52.408;13.356;2023-10-13T00:05:44;10.32;;;4.13;;
45762;SDS011;37512;52.408;13.356;2023-10-13T00:09:45;10.63;;;3.45;;
45762;SDS011;37512;52.408;13.356;2023-10-13T00:13:47;8.30;;;4.75;;
45762;SDS011;37512;52.408;13.356;2023-10-13T00:17:52;8.18;;;4.75;;
45762;SDS011;37512;52.408;13.356;2023-10-13T00:21:53;9.38;;;5.30;;
45762;SDS011;37512;52.408;13.356;2023-10-13T00:25:57;8.02;;;4.95;;
45762;SDS011;37512;52.408;13.356;2023-10-13T00:30:01;9.05;;;4.47;;
45762;SDS011;37512;52.408;13.356;2023-10-13T00:34:22;8.63;;;4.32;;
45762;SDS011;37512;52.408;13.356;2023-10-13T00:38:30;10.43;;;5.07;;
45762;SDS011;37512;52.408;13.356;2023-10-13T00:42:32;7.97;;;4.95;;
45762;SDS011;37512;52.408;13.356;2023-10-13T00:46:52;8.85;;;5.15;;
45762;SDS011;37512;52.408;13.356;2023-10-13T00:50:57;8.73;;;5.28;;
45762;SDS011;37512;52.408;13.356;2023-10-13T00:55:04;11.70;;;6.13;;
45762;SDS011;37512;52.408;13.356;2023-10-13T00:59:06;11.02;;;5.90;;
45762;SDS011;37512;52.408;13.356;2023-10-13T01:03:11;9.57;;;5.57;;
45762;SDS011;37512;52.408;13.356;2023-10-13T01:07:13;12.90;;;6.57;;
45762;SDS011;37512;52.408;13.356;2023-10-13T01:11:17;11.93;;;6.65;;
45762;SDS011;37512;52.408;13.356;2023-10-13T01:15:20;13.07;;;6.65;;
45762;SDS011;37512;52.408;13.356;2023-10-13T01:19:35;12.82;;;6.45;;
45762;SDS011;37512;52.408;13.356;2023-10-13T01:23:40;11.35;;;7.38;;
45762;SDS011;37512;52.408;13.356;2023-10-13T01:27:43;10.38;;;7.03;;
45762;SDS011;37512;52.408;13.356;2023-10-13T01:31:50;11.40;;;7.00;;
45762;SDS011;37512;52.408;13.356;2023-10-13T01:35:51;13.43;;;8.05;;
45762;SDS011;37512;52.408;13.356;2023-10-13T01:39:54;11.20;;;7.60;;
45762;SDS011;37512;52.408;13.356;2023-10-13T01:43:55;12.00;;;8.68;;
45762;SDS011;37512;52.408;13.356;2023-10-13T01:47:58;12.02;;;7.35;;
45762;SDS011;37512;52.408;13.356;2023-10-13T01:52:00;22.67;;;8.27;;
45762;SDS011;37512;52.408;13.356;2023-10-13T01:56:05;12.88;;;9.02;;
45762;SDS011;37512;52.408;13.356;2023-10-13T02:00:11;11.90;;;8.35;;
45762;SDS011;37512;52.408;13.356;2023-10-13T02:04:20;14.02;;;8.68;;
45762;SDS011;37512;52.408;13.356;2023-10-13T02:08:22;13.88;;;9.07;;
45762;SDS011;37512;52.408;13.356;2023-10-13T02:12:25;14.93;;;9.05;;
45762;SDS011;37512;52.408;13.356;2023-10-13T02:16:38;16.13;;;9.27;;
45762;SDS011;37512;52.408;13.356;2023-10-13T02:20:40;14.27;;;9.02;;
45762;SDS011;37512;52.408;13.356;2023-10-13T02:24:47;16.80;;;8.48;;
45762;SDS011;37512;52.408;13.356;2023-10-13T02:28:52;20.17;;;9.52;;
45762;SDS011;37512;52.408;13.356;2023-10-13T02:32:58;19.00;;;9.82;;
45762;SDS011;37512;52.408;13.356;2023-10-13T02:37:06;17.10;;;8.60;;
45762;SDS011;37512;52.408;13.356;2023-10-13T02:41:14;16.42;;;9.63;;
45762;SDS011;37512;52.408;13.356;2023-10-13T02:45:30;18.15;;;10.48;;
45762;SDS011;37512;52.408;13.356;2023-10-13T02:49:38;16.27;;;9.43;;
45762;SDS011;37512;52.408;13.356;2023-10-13T02:53:45;15.25;;;9.43;;
45762;SDS011;37512;52.408;13.356;2023-10-13T02:57:50;17.30;;;9.82;;
45762;SDS011;37512;52.408;13.356;2023-10-13T03:01:56;17.23;;;9.32;;
45762;SDS011;37512;52.408;13.356;2023-10-13T03:05:58;21.45;;;10.00;;
45762;SDS011;37512;52.408;13.356;2023-10-13T03:10:01;16.50;;;9.88;;
45762;SDS011;37512;52.408;13.356;2023-10-13T03:14:11;21.02;;;11.10;;
45762;SDS011;37512;52.408;13.356;2023-10-13T03:18:25;16.35;;;10.73;;
45762;SDS011;37512;52.408;13.356;2023-10-13T03:22:27;15.18;;;10.13;;
45762;SDS011;37512;52.408;13.356;2023-10-13T03:26:32;22.23;;;11.38;;
45762;SDS011;37512;52.408;13.356;2023-10-13T03:30:38;16.63;;;10.75;;
45762;SDS011;37512;52.408;13.356;2023-10-13T03:34:43;21.23;;;11.63;;
45762;SDS011;37512;52.408;13.356;2023-10-13T03:38:55;22.05;;;11.68;;
45762;SDS011;37512;52.408;13.356;2023-10-13T03:42:57;21.65;;;11.52;;
45762;SDS011;37512;52.408;13.356;2023-10-13T03:47:06;21.77;;;13.13;;
45762;SDS011;37512;52.408;13.356;2023-10-13T03:51:19;19.70;;;11.60;;
45762;SDS011;37512;52.408;13.356;2023-10-13T03:55:21;19.27;;;11.60;;
45762;SDS011;37512;52.408;13.356;2023-10-13T03:59:28;22.10;;;12.25;;
45762;SDS011;37512;52.408;13.356;2023-10-13T04:03:36;21.77;;;12.43;;
45762;SDS011;37512;52.408;13.356;2023-10-13T04:08:01;23.15;;;13.85;;
45762;SDS011;37512;52.408;13.356;2023-10-13T04:12:21;26.73;;;13.88;;
45762;SDS011;37512;52.408;13.356;2023-10-13T04:16:43;29.50;;;13.73;;
45762;SDS011;37512;52.408;13.356;2023-10-13T04:20:56;27.45;;;14.95;;
45762;SDS011;37512;52.408;13.356;2023-10-13T04:25:09;24.55;;;15.43;;
45762;SDS011;37512;52.408;13.356;2023-10-13T04:29:41;25.80;;;14.63;;
45762;SDS011;37512;52.408;13.356;2023-10-13T04:33:49;29.25;;;14.73;;
45762;SDS011;37512;52.408;13.356;2023-10-13T04:37:57;27.40;;;14.95;;
45762;SDS011;37512;52.408;13.356;2023-10-13T04:42:02;26.42;;;14.05;;
45762;SDS011;37512;52.408;13.356;2023-10-13T04:46:14;27.27;;;15.07;;
45762;SDS011;37512;52.408;13.356;2023-10-13T04:50:36;24.88;;;14.90;;
45762;SDS011;37512;52.408;13.356;2023-10-13T04:54:45;23.40;;;15.20;;
45762;SDS011;37512;52.408;13.356;2023-10-13T04:58:50;25.60;;;14.35;;
45762;SDS011;37512;52.408;13.356;2023-10-13T05:07:30;24.25;;;14.30;;
45762;SDS011;37512;52.408;13.356;2023-10-13T05:11:50;24.25;;;14.63;;
45762;SDS011;37512;52.408;13.356;2023-10-13T05:16:10;25.30;;;15.35;;
45762;SDS011;37512;52.408;13.356;2023-10-13T05:20:29;25.45;;;14.27;;
45762;SDS011;37512;52.408;13.356;2023-10-13T05:24:49;25.92;;;15.70;;
45762;SDS011;37512;52.408;13.356;2023-10-13T05:29:09;23.20;;;15.38;;
45762;SDS011;37512;52.408;13.356;2023-10-13T05:33:46;30.13;;;16.25;;
45762;SDS011;37512;52.408;13.356;2023-10-13T05:38:06;24.75;;;15.70;;
45762;SDS011;37512;52.408;13.356;2023-10-13T05:42:25;25.55;;;15.18;;
45762;SDS011;37512;52.408;13.356;2023-10-13T05:46:45;20.88;;;13.63;;
45762;SDS011;37512;52.408;13.356;2023-10-13T05:55:26;27.67;;;14.63;;
45762;SDS011;37512;52.408;13.356;2023-10-13T05:59:47;25.60;;;14.52;;
45762;SDS011;37512;52.408;13.356;2023-10-13T06:08:27;21.58;;;15.07;;
45762;SDS011;37512;52.408;13.356;2023-10-13T06:17:08;24.92;;;14.32;;
45762;SDS011;37512;52.408;13.356;2023-10-13T06:21:28;26.08;;;16.05;;
45762;SDS011;37512;52.408;13.356;2023-10-13T06:25:51;22.67;;;14.00;;
45762;SDS011;37512;52.408;13.356;2023-10-13T06:30:12;22.33;;;14.57;;
45762;SDS011;37512;52.408;13.356;2023-10-13T06:34:14;25.00;;;14.63;;
45762;SDS011;37512;52.408;13.356;2023-10-13T06:38:17;22.70;;;13.88;;
45762;SDS011;37512;52.408;13.356;2023-10-13T06:46:29;24.02;;;13.00;;
45762;SDS011;37512;52.408;13.356;2023-10-13T06:50:35;23.20;;;14.07;;
45762;SDS011;37512;52.408;13.356;2023-10-13T06:54:42;21.23;;;13.57;;
45762;SDS011;37512;52.408;13.356;2023-10-13T06:58:44;19.25;;;13.18;;
45762;SDS011;37512;52.408;13.356;2023-10-13T07:02:48;20.08;;;12.40;;
45762;SDS011;37512;52.408;13.356;2023-10-13T07:06:53;14.40;;;10.90;;
45762;SDS011;37512;52.408;13.356;2023-10-13T07:10:55;14.82;;;11.02;;
45762;SDS011;37512;52.408;13.356;2023-10-13T07:15:04;19.08;;;11.90;;
45762;SDS011;37512;52.408;13.356;2023-10-13T07:19:26;15.07;;;9.57;;
45762;SDS011;37512;52.408;13.356;2023-10-13T07:23:31;15.60;;;9.82;;
45762;SDS011;37512;52.408;13.356;2023-10-13T07:27:32;15.18;;;9.90;;
45762;SDS011;37512;52.408;13.356;2023-10-13T07:31:36;19.02;;;8.70;;
45762;SDS011;37512;52.408;13.356;2023-10-13T07:35:39;13.07;;;7.80;;
45762;SDS011;37512;52.408;13.356;2023-10-13T07:39:42;12.65;;;7.70;;
45762;SDS011;37512;52.408;13.356;2023-10-13T07:43:47;13.88;;;8.52;;
45762;SDS011;37512;52.408;13.356;2023-10-13T07:47:51;12.50;;;8.55;;
45762;SDS011;37512;52.408;13.356;2023-10-13T07:51:53;14.40;;;7.65;;
45762;SDS011;37512;52.408;13.356;2023-10-13T07:55:58;10.38;;;7.07;;
45762;SDS011;37512;52.408;13.356;2023-10-13T08:00:04;13.45;;;7.60;;
45762;SDS011;37512;52.408;13.356;2023-10-13T08:04:13;8.95;;;7.57;;
45762;SDS011;37512;52.408;13.356;2023-10-13T08:08:18;17.27;;;8.00;;
45762;SDS011;37512;52.408;13.356;2023-10-13T08:12:20;11.75;;;7.28;;
45762;SDS011;37512;52.408;13.356;2023-10-13T08:16:28;9.82;;;7.45;;
45762;SDS011;37512;52.408;13.356;2023-10-13T08:20:51;12.38;;;7.85;;
45762;SDS011;37512;52.408;13.356;2023-10-13T08:24:55;8.48;;;6.80;;
45762;SDS011;37512;52.408;13.356;2023-10-13T08:29:16;9.10;;;6.30;;
45762;SDS011;37512;52.408;13.356;2023-10-13T08:33:24;11.57;;;6.60;;
45762;SDS011;37512;52.408;13.356;2023-10-13T08:37:30;9.38;;;6.07;;
45762;SDS011;37512;52.408;13.356;2023-10-13T08:41:51;9.15;;;7.38;;
45762;SDS011;37512;52.408;13.356;2023-10-13T08:46:13;13.65;;;7.90;;
45762;SDS011;37512;52.408;13.356;2023-10-13T08:50:26;12.65;;;7.38;;
45762;SDS011;37512;52.408;13.356;2023-10-13T08:54:46;9.30;;;6.43;;
45762;SDS011;37512;52.408;13.356;2023-10-13T08:59:04;11.93;;;6.72;;
45762;SDS011;37512;52.408;13.356;2023-10-13T09:03:11;11.73;;;6.57;;
45762;SDS011;37512;52.408;13.356;2023-10-13T09:07:45;11.40;;;6.90;;
45762;SDS011;37512;52.408;13.356;2023-10-13T09:12:16;13.38;;;6.80;;
45762;SDS011;37512;52.408;13.356;2023-10-13T09:16:23;13.43;;;7.75;;
45762;SDS011;37512;52.408;13.356;2023-10-13T09:20:45;9.35;;;6.85;;
45762;SDS011;37512;52.408;13.356;2023-10-13T09:24:47;8.20;;;6.13;;
45762;SDS011;37512;52.408;13.356;2023-10-13T09:28:52;10.63;;;6.57;;
45762;SDS011;37512;52.408;13.356;2023-10-13T09:33:01;11.63;;;7.07;;
45762;SDS011;37512;52.408;13.356;2023-10-13T09:37:05;11.70;;;7.38;;
45762;SDS011;37512;52.408;13.356;2023-10-13T09:41:08;9.02;;;6.00;;
45762;SDS011;37512;52.408;13.356;2023-10-13T09:49:39;14.45;;;6.82;;
45762;SDS011;37512;52.408;13.356;2023-10-13T09:53:49;9.63;;;7.00;;
45762;SDS011;37512;52.408;13.356;2023-10-13T09:58:19;9.65;;;6.43;;
45762;SDS011;37512;52.408;13.356;2023-10-13T10:02:29;9.02;;;6.88;;
45762;SDS011;37512;52.408;13.356;2023-10-13T10:06:31;10.40;;;5.72;;
45762;SDS011;37512;52.408;13.356;2023-10-13T10:10:56;8.45;;;5.53;;
45762;SDS011;37512;52.408;13.356;2023-10-13T10:19:31;8.48;;;5.47;;
45762;SDS011;37512;52.408;13.356;2023-10-13T10:23:37;9.90;;;4.40;;
45762;SDS011;37512;52.408;13.356;2023-10-13T10:27:54;16.88;;;6.20;;
45762;SDS011;37512;52.408;13.356;2023-10-13T10:31:59;11.90;;;5.85;;
45762;SDS011;37512;52.408;13.356;2023-10-13T10:36:01;6.40;;;3.80;;
45762;SDS011;37512;52.408;13.356;2023-10-13T10:40:09;12.00;;;6.35;;
45762;SDS011;37512;52.408;13.356;2023-10-13T10:44:20;8.90;;;6.28;;
45762;SDS011;37512;52.408;13.356;2023-10-13T10:48:35;10.27;;;6.82;;
45762;SDS011;37512;52.408;13.356;2023-10-13T10:52:39;12.30;;;6.20;;
45762;SDS011;37512;52.408;13.356;2023-10-13T10:56:41;9.95;;;6.22;;
45762;SDS011;37512;52.408;13.356;2023-10-13T11:00:42;9.20;;;6.05;;
45762;SDS011;37512;52.408;13.356;2023-10-13T11:04:50;9.15;;;6.53;;
45762;SDS011;37512;52.408;13.356;2023-10-13T11:09:05;14.48;;;9.02;;
45762;SDS011;37512;52.408;13.356;2023-10-13T11:13:25;9.35;;;6.57;;
45762;SDS011;37512;52.408;13.356;2023-10-13T11:17:31;11.90;;;6.60;;
45762;SDS011;37512;52.408;13.356;2023-10-13T11:21:53;10.02;;;6.72;;
45762;SDS011;37512;52.408;13.356;2023-10-13T11:25:58;12.80;;;5.88;;
45762;SDS011;37512;52.408;13.356;2023-10-13T11:30:01;9.48;;;6.32;;
45762;SDS011;37512;52.408;13.356;2023-10-13T11:34:06;9.50;;;5.78;;
45762;SDS011;37512;52.408;13.356;2023-10-13T11:38:10;8.75;;;6.57;;
45762;SDS011;37512;52.408;13.356;2023-10-13T11:42:15;13.18;;;6.35;;
45762;SDS011;37512;52.408;13.356;2023-10-13T11:50:40;8.65;;;5.63;;
45762;SDS011;37512;52.408;13.356;2023-10-13T11:54:43;11.52;;;6.28;;
45762;SDS011;37512;52.408;13.356;2023-10-13T11:58:45;8.15;;;5.47;;
45762;SDS011;37512;52.408;13.356;2023-10-13T12:02:48;11.77;;;6.03;;
45762;SDS011;37512;52.408;13.356;2023-10-13T12:07:08;11.65;;;5.15;;
45762;SDS011;37512;52.408;13.356;2023-10-13T12:11:20;14.00;;;6.75;;
45762;SDS011;37512;52.408;13.356;2023-10-13T12:15:39;10.90;;;5.27;;
45762;SDS011;37512;52.408;13.356;2023-10-13T12:19:52;8.25;;;5.13;;
45762;SDS011;37512;52.408;13.356;2023-10-13T12:23:54;8.45;;;5.32;;
45762;SDS011;37512;52.408;13.356;2023-10-13T12:27:56;8.82;;;4.93;;
45762;SDS011;37512;52.408;13.356;2023-10-13T12:32:17;10.23;;;5.18;;
45762;SDS011;37512;52.408;13.356;2023-10-13T12:36:32;10.77;;;4.70;;
45762;SDS011;37512;52.408;13.356;2023-10-13T12:40:42;6.10;;;4.38;;
45762;SDS011;37512;52.408;13.356;2023-10-13T12:45:02;11.05;;;5.55;;
45762;SDS011;37512;52.408;13.356;2023-10-13T12:49:22;8.93;;;4.80;;
45762;SDS011;37512;52.408;13.356;2023-10-13T12:57:43;12.45;;;4.88;;
45762;SDS011;37512;52.408;13.356;2023-10-13T13:01:45;11.20;;;4.97;;
45762;SDS011;37512;52.408;13.356;2023-10-13T13:05:47;11.07;;;4.97;;
45762;SDS011;37512;52.408;13.356;2023-10-13T13:09:49;9.25;;;4.90;;
45762;SDS011;37512;52.408;13.356;2023-10-13T13:13:55;11.13;;;5.03;;
45762;SDS011;37512;52.408;13.356;2023-10-13T13:17:57;14.18;;;5.47;;
45762;SDS011;37512;52.408;13.356;2023-10-13T13:21:59;8.35;;;5.00;;
45762;SDS011;37512;52.408;13.356;2023-10-13T13:26:01;11.77;;;4.80;;
45762;SDS011;37512;52.408;13.356;2023-10-13T13:30:03;10.77;;;4.57;;
45762;SDS011;37512;52.408;13.356;2023-10-13T13:34:13;10.85;;;4.28;;
45762;SDS011;37512;52.408;13.356;2023-10-13T13:38:14;8.15;;;4.65;;
45762;SDS011;37512;52.408;13.356;2023-10-13T13:42:23;10.30;;;4.57;;
45762;SDS011;37512;52.408;13.356;2023-10-13T13:46:25;13.13;;;6.03;;
45762;SDS011;37512;52.408;13.356;2023-10-13T13:50:37;15.43;;;5.72;;
45762;SDS011;37512;52.408;13.356;2023-10-13T13:54:42;17.55;;;4.93;;
45762;SDS011;37512;52.408;13.356;2023-10-13T13:58:47;12.40;;;5.00;;
45762;SDS011;37512;52.408;13.356;2023-10-13T14:02:51;12.73;;;4.70;;
45762;SDS011;37512;52.408;13.356;2023-10-13T14:06:53;12.27;;;4.50;;
45762;SDS011;37512;52.408;13.356;2023-10-13T14:10:54;9.98;;;4.65;;
45762;SDS011;37512;52.408;13.356;2023-10-13T14:15:14;8.48;;;4.22;;
45762;SDS011;37512;52.408;13.356;2023-10-13T14:19:26;9.88;;;4.63;;
45762;SDS011;37512;52.408;13.356;2023-10-13T14:23:30;7.82;;;4.05;;
45762;SDS011;37512;52.408;13.356;2023-10-13T14:27:32;10.95;;;4.65;;
45762;SDS011;37512;52.408;13.356;2023-10-13T14:31:34;9.80;;;4.75;;
45762;SDS011;37512;52.408;13.356;2023-10-13T14:35:39;13.88;;;5.68;;
45762;SDS011;37512;52.408;13.356;2023-10-13T14:39:40;10.20;;;4.45;;
45762;SDS011;37512;52.408;13.356;2023-10-13T14:43:42;11.27;;;5.38;;
45762;SDS011;37512;52.408;13.356;2023-10-13T14:47:48;14.05;;;4.90;;
45762;SDS011;37512;52.408;13.356;2023-10-13T14:51:50;8.23;;;3.80;;
45762;SDS011;37512;52.408;13.356;2023-10-13T14:55:51;10.23;;;4.45;;
45762;SDS011;37512;52.408;13.356;2023-10-13T14:59:53;13.75;;;5.55;;
45762;SDS011;37512;52.408;13.356;2023-10-13T15:03:56;9.32;;;4.03;;
45762;SDS011;37512;52.408;13.356;2023-10-13T15:07:59;12.05;;;5.20;;
45762;SDS011;37512;52.408;13.356;2023-10-13T15:12:00;14.68;;;5.47;;
45762;SDS011;37512;52.408;13.356;2023-10-13T15:16:16;14.82;;;5.38;;
45762;SDS011;37512;52.408;13.356;2023-10-13T15:20:20;14.32;;;5.13;;
45762;SDS011;37512;52.408;13.356;2023-10-13T15:24:22;11.43;;;4.93;;
45762;SDS011;37512;52.408;13.356;2023-10-13T15:28:31;12.55;;;4.65;;
45762;SDS011;37512;52.408;13.356;2023-10-13T15:32:32;14.10;;;5.35;;
45762;SDS011;37512;52.408;13.356;2023-10-13T15:36:43;15.55;;;5.50;;
45762;SDS011;37512;52.408;13.356;2023-10-13T15:40:45;10.15;;;4.95;;
45762;SDS011;37512;52.408;13.356;2023-10-13T15:44:46;10.10;;;4.32;;
45762;SDS011;37512;52.408;13.356;2023-10-13T15:48:50;12.00;;;5.25;;
45762;SDS011;37512;52.408;13.356;2023-10-13T15:53:12;10.73;;;5.05;;
45762;SDS011;37512;52.408;13.356;2023-10-13T15:57:14;9.75;;;4.88;;
45762;SDS011;37512;52.408;13.356;2023-10-13T16:01:17;13.75;;;4.90;;
45762;SDS011;37512;52.408;13.356;2023-10-13T16:05:31;13.38;;;5.18;;
45762;SDS011;37512;52.408;13.356;2023-10-13T16:09:36;13.90;;;4.75;;
45762;SDS011;37512;52.408;13.356;2023-10-13T16:13:37;16.30;;;6.15;;
45762;SDS011;37512;52.408;13.356;2023-10-13T16:17:42;13.13;;;5.32;;
45762;SDS011;37512;52.408;13.356;2023-10-13T16:21:44;16.80;;;5.03;;
45762;SDS011;37512;52.408;13.356;2023-10-13T16:25:48;12.30;;;5.95;;
45762;SDS011;37512;52.408;13.356;2023-10-13T16:29:50;9.02;;;4.60;;
45762;SDS011;37512;52.408;13.356;2023-10-13T16:33:52;11.20;;;4.68;;
45762;SDS011;37512;52.408;13.356;2023-10-13T16:37:56;10.02;;;5.70;;
45762;SDS011;37512;52.408;13.356;2023-10-13T16:41:57;9.80;;;4.80;;
45762;SDS011;37512;52.408;13.356;2023-10-13T16:45:59;13.38;;;4.43;;
45762;SDS011;37512;52.408;13.356;2023-10-13T16:50:00;11.70;;;4.80;;
45762;SDS011;37512;52.408;13.356;2023-10-13T16:54:03;15.15;;;5.70;;
45762;SDS011;37512;52.408;13.356;2023-10-13T16:58:06;13.68;;;5.40;;
45762;SDS011;37512;52.408;13.356;2023-10-13T17:02:07;13.93;;;6.15;;
45762;SDS011;37512;52.408;13.356;2023-10-13T17:06:09;12.30;;;5.60;;
45762;SDS011;37512;52.408;13.356;2023-10-13T17:10:10;13.07;;;5.70;;
45762;SDS011;37512;52.408;13.356;2023-10-13T17:14:12;10.13;;;4.75;;
45762;SDS011;37512;52.408;13.356;2023-10-13T17:18:14;8.95;;;3.97;;
45762;SDS011;37512;52.408;13.356;2023-10-13T17:22:17;10.27;;;5.22;;
45762;SDS011;37512;52.408;13.356;2023-10-13T17:26:20;7.78;;;4.15;;
45762;SDS011;37512;52.408;13.356;2023-10-13T17:30:29;8.30;;;4.70;;
45762;SDS011;37512;52.408;13.356;2023-10-13T17:34:30;12.13;;;4.80;;
45762;SDS011;37512;52.408;13.356;2023-10-13T17:38:32;15.90;;;5.47;;
45762;SDS011;37512;52.408;13.356;2023-10-13T17:42:34;11.57;;;4.15;;
45762;SDS011;37512;52.408;13.356;2023-10-13T17:46:36;10.73;;;5.00;;
45762;SDS011;37512;52.408;13.356;2023-10-13T17:50:41;13.15;;;5.32;;
45762;SDS011;37512;52.408;13.356;2023-10-13T17:54:44;14.00;;;5.57;;
45762;SDS011;37512;52.408;13.356;2023-10-13T17:58:46;8.13;;;4.78;;
45762;SDS011;37512;52.408;13.356;2023-10-13T18:02:48;11.05;;;5.15;;
45762;SDS011;37512;52.408;13.356;2023-10-13T18:06:53;14.95;;;5.10;;
45762;SDS011;37512;52.408;13.356;2023-10-13T18:10:57;14.43;;;4.75;;
45762;SDS011;37512;52.408;13.356;2023-10-13T18:15:00;13.15;;;4.60;;
45762;SDS011;37512;52.408;13.356;2023-10-13T18:19:01;6.00;;;3.05;;
45762;SDS011;37512;52.408;13.356;2023-10-13T18:23:08;10.93;;;4.38;;
45762;SDS011;37512;52.408;13.356;2023-10-13T18:27:13;11.88;;;4.35;;
45762;SDS011;37512;52.408;13.356;2023-10-13T18:31:14;11.82;;;4.88;;
45762;SDS011;37512;52.408;13.356;2023-10-13T18:35:17;13.10;;;4.93;;
45762;SDS011;37512;52.408;13.356;2023-10-13T18:39:20;11.93;;;5.40;;
45762;SDS011;37512;52.408;13.356;2023-10-13T18:43:26;11.93;;;5.40;;
45762;SDS011;37512;52.408;13.356;2023-10-13T18:47:27;10.52;;;5.45;;
45762;SDS011;37512;52.408;13.356;2023-10-13T18:51:29;9.40;;;5.00;;
45762;SDS011;37512;52.408;13.356;2023-10-13T18:55:33;11.52;;;4.85;;
45762;SDS011;37512;52.408;13.356;2023-10-13T18:59:35;8.38;;;4.93;;
45762;SDS011;37512;52.408;13.356;2023-10-13T19:03:36;14.70;;;5.43;;
45762;SDS011;37512;52.408;13.356;2023-10-13T19:07:38;10.27;;;5.25;;
45762;SDS011;37512;52.408;13.356;2023-10-13T19:11:40;7.57;;;4.85;;
45762;SDS011;37512;52.408;13.356;2023-10-13T19:15:46;8.55;;;3.85;;
45762;SDS011;37512;52.408;13.356;2023-10-13T19:19:48;11.75;;;5.57;;
45762;SDS011;37512;52.408;13.356;2023-10-13T19:23:50;8.18;;;3.92;;
45762;SDS011;37512;52.408;13.356;2023-10-13T19:27:53;9.02;;;4.10;;
45762;SDS011;37512;52.408;13.356;2023-10-13T19:31:55;6.03;;;4.07;;
45762;SDS011;37512;52.408;13.356;2023-10-13T19:35:57;7.38;;;4.95;;
45762;SDS011;37512;52.408;13.356;2023-10-13T19:39:58;13.43;;;4.63;;
45762;SDS011;37512;52.408;13.356;2023-10-13T19:44:00;7.80;;;4.15;;
45762;SDS011;37512;52.408;13.356;2023-10-13T19:48:07;10.95;;;5.25;;
45762;SDS011;37512;52.408;13.356;2023-10-13T19:52:10;12.88;;;4.88;;
45762;SDS011;37512;52.408;13.356;2023-10-13T19:56:16;11.40;;;4.22;;
45762;SDS011;37512;52.408;13.356;2023-10-13T20:00:18;10.27;;;4.53;;
45762;SDS011;37512;52.408;13.356;2023-10-13T20:04:23;11.65;;;4.65;;
45762;SDS011;37512;52.408;13.356;2023-10-13T20:08:24;13.77;;;5.13;;
45762;SDS011;37512;52.408;13.356;2023-10-13T20:12:26;10.10;;;4.53;;
45762;SDS011;37512;52.408;13.356;2023-10-13T20:16:28;8.60;;;4.63;;
45762;SDS011;37512;52.408;13.356;2023-10-13T20:20:31;15.02;;;5.18;;
45762;SDS011;37512;52.408;13.356;2023-10-13T20:24:32;12.05;;;5.40;;
45762;SDS011;37512;52.408;13.356;2023-10-13T20:28:34;11.05;;;4.68;;
45762;SDS011;37512;52.408;13.356;2023-10-13T20:32:35;11.20;;;4.50;;
45762;SDS011;37512;52.408;13.356;2023-10-13T20:36:40;9.93;;;4.40;;
45762;SDS011;37512;52.408;13.356;2023-10-13T20:40:42;12.07;;;4.80;;
45762;SDS011;37512;52.408;13.356;2023-10-13T20:44:43;7.82;;;4.00;;
45762;SDS011;37512;52.408;13.356;2023-10-13T20:48:45;9.75;;;4.20;;
45762;SDS011;37512;52.408;13.356;2023-10-13T20:52:49;12.95;;;5.15;;
45762;SDS011;37512;52.408;13.356;2023-10-13T20:56:51;12.85;;;4.68;;
45762;SDS011;37512;52.408;13.356;2023-10-13T21:00:55;10.02;;;4.20;;
45762;SDS011;37512;52.408;13.356;2023-10-13T21:04:57;11.15;;;5.50;;
45762;SDS011;37512;52.408;13.356;2023-10-13T21:08:59;11.05;;;5.32;;
45762;SDS011;37512;52.408;13.356;2023-10-13T21:13:00;10.98;;;5.00;;
45762;SDS011;37512;52.408;13.356;2023-10-13T21:17:03;10.15;;;5.05;;
45762;SDS011;37512;52.408;13.356;2023-10-13T21:21:06;11.85;;;4.68;;
45762;SDS011;37512;52.408;13.356;2023-10-13T21:25:08;10.52;;;4.88;;
45762;SDS011;37512;52.408;13.356;2023-10-13T21:29:20;8.10;;;4.55;;
45762;SDS011;37512;52.408;13.356;2023-10-13T21:33:22;9.45;;;5.13;;
45762;SDS011;37512;52.408;13.356;2023-10-13T21:37:26;11.00;;;4.93;;
45762;SDS011;37512;52.408;13.356;2023-10-13T21:41:28;11.93;;;4.72;;
45762;SDS011;37512;52.408;13.356;2023-10-13T21:45:29;10.07;;;4.60;;
45762;SDS011;37512;52.408;13.356;2023-10-13T21:49:31;13.98;;;5.13;;
45762;SDS011;37512;52.408;13.356;2023-10-13T21:53:32;10.35;;;4.88;;
45762;SDS011;37512;52.408;13.356;2023-10-13T21:57:34;6.82;;;3.85;;
45762;SDS011;37512;52.408;13.356;2023-10-13T22:01:36;12.18;;;4.57;;
45762;SDS011;37512;52.408;13.356;2023-10-13T22:05:45;13.27;;;4.78;;
45762;SDS011;37512;52.408;13.356;2023-10-13T22:09:46;12.50;;;4.95;;
45762;SDS011;37512;52.408;13.356;2023-10-13T22:13:48;10.77;;;4.72;;
45762;SDS011;37512;52.408;13.356;2023-10-13T22:17:50;7.30;;;4.65;;
45762;SDS011;37512;52.408;13.356;2023-10-13T22:21:52;7.35;;;4.80;;
45762;SDS011;37512;52.408;13.356;2023-10-13T22:25:54;9.98;;;4.60;;
45762;SDS011;37512;52.408;13.356;2023-10-13T22:29:55;9.30;;;3.92;;
45762;SDS011;37512;52.408;13.356;2023-10-13T22:33:59;9.77;;;4.57;;
45762;SDS011;37512;52.408;13.356;2023-10-13T22:38:00;15.10;;;4.90;;
45762;SDS011;37512;52.408;13.356;2023-10-13T22:42:02;10.38;;;4.72;;
45762;SDS011;37512;52.408;13.356;2023-10-13T22:46:04;6.43;;;3.95;;
45762;SDS011;37512;52.408;13.356;2023-10-13T22:50:06;12.73;;;4.80;;
45762;SDS011;37512;52.408;13.356;2023-10-13T22:54:08;8.02;;;3.95;;
45762;SDS011;37512;52.408;13.356;2023-10-13T22:58:11;9.32;;;4.25;;
45762;SDS011;37512;52.408;13.356;2023-10-13T23:02:14;8.70;;;4.47;;
45762;SDS011;37512;52.408;13.356;2023-10-13T23:06:15;6.25;;;4.15;;
45762;SDS011;37512;52.408;13.356;2023-10-13T23:10:22;7.40;;;4.13;;
45762;SDS011;37512;52.408;13.356;2023-10-13T23:14:34;9.93;;;3.65;;
45762;SDS011;37512;52.408;13.356;2023-10-13T23:18:36;9.23;;;4.38;;
45762;SDS011;37512;52.408;13.356;2023-10-13T23:22:38;9.70;;;3.85;;
45762;SDS011;37512;52.408;13.356;2023-10-13T23:26:40;8.73;;;4.00;;
45762;SDS011;37512;52.408;13.356;2023-10-13T23:30:42;9.38;;;3.47;;
45762;SDS011;37512;52.408;13.356;2023-10-13T23:34:46;17.45;;;4.30;;
45762;SDS011;37512;52.408;13.356;2023-10-13T23:38:47;11.80;;;4.68;;
45762;SDS011;37512;52.408;13.356;2023-10-13T23:43:00;9.55;;;4.47;;
45762;SDS011;37512;52.408;13.356;2023-10-13T23:47:07;11.48;;;4.20;;
45762;SDS011;37512;52.408;13.356;2023-10-13T23:51:12;6.68;;;3.83;;
45762;SDS011;37512;52.408;13.356;2023-10-13T23:55:22;10.02;;;4.60;;
45762;SDS011;37512;52.408;13.356;2023-10-13T23:59:24;8.27;;;4.03;;
